sensor_id;sensor_type;location;lat;lon;timestamp;temperature;humidity
5560;DHT22;2803;47.916;8.074;2023-02-24T00:00:12;7.80;99.90
5560;DHT22;2803;47.916;8.074;2023-02-24T00:02:58;7.90;99.90
5560;DHT22;2803;47.916;8.074;2023-02-24T00:05:31;7.80;99.90
5560;DHT22;2803;47.916;8.074;2023-02-24T00:07:58;7.80;99.90
5560;DHT22;2803;47.916;8.074;2023-02-24T00:10:25;7.60;99.90
5560;DHT22;2803;47.916;8.074;2023-02-24T00:12:51;7.30;99.90
5560;DHT22;2803;47.916;8.074;2023-02-24T00:15:19;7.60;99.90
5560;DHT22;2803;47.916;8.074;2023-02-24T00:17:45;7.60;99.90
5560;DHT22;2803;47.916;8.074;2023-02-24T00:20:13;7.70;99.90
5560;DHT22;2803;47.916;8.074;2023-02-24T00:22:43;6.80;99.90
5560;DHT22;2803;47.916;8.074;2023-02-24T00:25:11;7.30;99.90
5560;DHT22;2803;47.916;8.074;2023-02-24T00:27:39;7.60;99.90
5560;DHT22;2803;47.916;8.074;2023-02-24T00:30:07;7.50;99.90
5560;DHT22;2803;47.916;8.074;2023-02-24T00:32:36;7.00;99.90
5560;DHT22;2803;47.916;8.074;2023-02-24T00:35:03;6.60;99.90
5560;DHT22;2803;47.916;8.074;2023-02-24T00:37:31;7.10;99.90
5560;DHT22;2803;47.916;8.074;2023-02-24T00:39:58;7.30;99.90
5560;DHT22;2803;47.916;8.074;2023-02-24T00:42:24;7.30;99.90
5560;DHT22;2803;47.916;8.074;2023-02-24T00:44:51;7.40;99.90
5560;DHT22;2803;47.916;8.074;2023-02-24T00:47:19;7.40;99.90
5560;DHT22;2803;47.916;8.074;2023-02-24T00:49:47;7.30;99.90
5560;DHT22;2803;47.916;8.074;2023-02-24T00:52:16;7.20;99.90
5560;DHT22;2803;47.916;8.074;2023-02-24T00:54:45;7.40;99.90
5560;DHT22;2803;47.916;8.074;2023-02-24T00:57:13;7.40;99.90
5560;DHT22;2803;47.916;8.074;2023-02-24T00:59:40;7.40;99.90
5560;DHT22;2803;47.916;8.074;2023-02-24T01:02:12;7.30;99.90
5560;DHT22;2803;47.916;8.074;2023-02-24T01:04:39;7.20;99.90
5560;DHT22;2803;47.916;8.074;2023-02-24T01:07:09;7.20;99.90
5560;DHT22;2803;47.916;8.074;2023-02-24T01:09:38;7.10;99.90
5560;DHT22;2803;47.916;8.074;2023-02-24T01:12:09;6.80;99.90
5560;DHT22;2803;47.916;8.074;2023-02-24T01:14:51;6.30;99.90
5560;DHT22;2803;47.916;8.074;2023-02-24T01:17:20;6.10;99.90
5560;DHT22;2803;47.916;8.074;2023-02-24T01:19:47;6.10;99.90
5560;DHT22;2803;47.916;8.074;2023-02-24T01:22:16;6.10;99.90
5560;DHT22;2803;47.916;8.074;2023-02-24T01:24:43;6.00;99.90
5560;DHT22;2803;47.916;8.074;2023-02-24T01:27:13;6.00;99.90
5560;DHT22;2803;47.916;8.074;2023-02-24T01:29:41;6.40;99.90
5560;DHT22;2803;47.916;8.074;2023-02-24T01:32:12;6.60;99.90
5560;DHT22;2803;47.916;8.074;2023-02-24T01:34:41;6.60;99.90
5560;DHT22;2803;47.916;8.074;2023-02-24T01:37:07;6.50;99.90
5560;DHT22;2803;47.916;8.074;2023-02-24T01:39:35;5.90;99.90
5560;DHT22;2803;47.916;8.074;2023-02-24T01:42:03;6.10;99.90
5560;DHT22;2803;47.916;8.074;2023-02-24T01:47:28;6.40;99.90
5560;DHT22;2803;47.916;8.074;2023-02-24T01:49:55;6.40;99.90
5560;DHT22;2803;47.916;8.074;2023-02-24T01:52:25;6.50;99.90
5560;DHT22;2803;47.916;8.074;2023-02-24T01:54:56;6.50;99.90
5560;DHT22;2803;47.916;8.074;2023-02-24T01:57:27;6.60;99.90
5560;DHT22;2803;47.916;8.074;2023-02-24T01:59:56;6.60;99.90
5560;DHT22;2803;47.916;8.074;2023-02-24T02:02:26;6.40;99.90
5560;DHT22;2803;47.916;8.074;2023-02-24T02:04:57;6.60;99.90
5560;DHT22;2803;47.916;8.074;2023-02-24T02:07:28;6.30;99.90
5560;DHT22;2803;47.916;8.074;2023-02-24T02:09:57;6.50;99.90
5560;DHT22;2803;47.916;8.074;2023-02-24T02:12:25;6.60;99.90
5560;DHT22;2803;47.916;8.074;2023-02-24T02:14:55;6.40;99.90
5560;DHT22;2803;47.916;8.074;2023-02-24T02:17:28;6.30;99.90
5560;DHT22;2803;47.916;8.074;2023-02-24T02:20:24;6.40;99.90
5560;DHT22;2803;47.916;8.074;2023-02-24T02:23:20;6.30;99.90
5560;DHT22;2803;47.916;8.074;2023-02-24T02:26:06;6.30;99.90
5560;DHT22;2803;47.916;8.074;2023-02-24T02:28:53;6.50;99.90
5560;DHT22;2803;47.916;8.074;2023-02-24T02:31:36;6.50;99.90
5560;DHT22;2803;47.916;8.074;2023-02-24T02:34:20;6.50;99.90
5560;DHT22;2803;47.916;8.074;2023-02-24T02:36:56;6.60;99.90
5560;DHT22;2803;47.916;8.074;2023-02-24T02:39:32;6.40;99.90
5560;DHT22;2803;47.916;8.074;2023-02-24T02:42:07;6.50;99.90
5560;DHT22;2803;47.916;8.074;2023-02-24T02:44:46;6.60;99.90
5560;DHT22;2803;47.916;8.074;2023-02-24T02:47:19;6.70;99.90
5560;DHT22;2803;47.916;8.074;2023-02-24T02:49:52;6.20;99.90
5560;DHT22;2803;47.916;8.074;2023-02-24T02:52:25;6.20;99.90
5560;DHT22;2803;47.916;8.074;2023-02-24T02:54:55;6.30;99.90
5560;DHT22;2803;47.916;8.074;2023-02-24T02:57:25;6.50;99.90
5560;DHT22;2803;47.916;8.074;2023-02-24T02:59:57;6.40;99.90
5560;DHT22;2803;47.916;8.074;2023-02-24T03:02:30;6.20;99.90
5560;DHT22;2803;47.916;8.074;2023-02-24T03:05:06;6.50;99.90
5560;DHT22;2803;47.916;8.074;2023-02-24T03:07:39;6.70;99.90
5560;DHT22;2803;47.916;8.074;2023-02-24T03:10:09;6.60;99.90
5560;DHT22;2803;47.916;8.074;2023-02-24T03:12:43;6.20;99.90
5560;DHT22;2803;47.916;8.074;2023-02-24T03:15:11;6.30;99.90
5560;DHT22;2803;47.916;8.074;2023-02-24T03:17:42;6.40;99.90
5560;DHT22;2803;47.916;8.074;2023-02-24T03:20:14;6.50;99.90
5560;DHT22;2803;47.916;8.074;2023-02-24T03:22:45;6.60;99.90
5560;DHT22;2803;47.916;8.074;2023-02-24T03:25:14;6.70;99.90
5560;DHT22;2803;47.916;8.074;2023-02-24T03:27:44;6.70;99.90
5560;DHT22;2803;47.916;8.074;2023-02-24T03:30:16;6.80;99.90
5560;DHT22;2803;47.916;8.074;2023-02-24T03:32:50;6.90;99.90
5560;DHT22;2803;47.916;8.074;2023-02-24T03:35:25;6.80;99.90
5560;DHT22;2803;47.916;8.074;2023-02-24T03:37:52;6.80;99.90
5560;DHT22;2803;47.916;8.074;2023-02-24T03:40:20;6.90;99.90
5560;DHT22;2803;47.916;8.074;2023-02-24T03:42:58;7.00;99.90
5560;DHT22;2803;47.916;8.074;2023-02-24T03:45:30;6.90;99.90
5560;DHT22;2803;47.916;8.074;2023-02-24T03:48:00;6.90;99.90
5560;DHT22;2803;47.916;8.074;2023-02-24T03:50:30;7.00;99.90
5560;DHT22;2803;47.916;8.074;2023-02-24T03:53:06;6.90;99.90
5560;DHT22;2803;47.916;8.074;2023-02-24T03:55:41;6.70;99.90
5560;DHT22;2803;47.916;8.074;2023-02-24T03:58:17;6.90;99.90
5560;DHT22;2803;47.916;8.074;2023-02-24T04:00:54;6.90;99.90
5560;DHT22;2803;47.916;8.074;2023-02-24T04:03:27;7.00;99.90
5560;DHT22;2803;47.916;8.074;2023-02-24T04:06:07;6.80;99.90
5560;DHT22;2803;47.916;8.074;2023-02-24T04:08:40;6.70;99.90
5560;DHT22;2803;47.916;8.074;2023-02-24T04:11:13;6.80;99.90
5560;DHT22;2803;47.916;8.074;2023-02-24T04:13:44;6.80;99.90
5560;DHT22;2803;47.916;8.074;2023-02-24T04:16:15;6.60;99.90
5560;DHT22;2803;47.916;8.074;2023-02-24T04:18:46;5.90;99.90
5560;DHT22;2803;47.916;8.074;2023-02-24T04:21:16;5.90;99.90
5560;DHT22;2803;47.916;8.074;2023-02-24T04:23:44;6.30;99.90
5560;DHT22;2803;47.916;8.074;2023-02-24T04:26:13;6.60;99.90
5560;DHT22;2803;47.916;8.074;2023-02-24T04:28:41;6.70;99.90
5560;DHT22;2803;47.916;8.074;2023-02-24T04:31:10;6.40;99.90
5560;DHT22;2803;47.916;8.074;2023-02-24T04:33:43;6.60;99.90
5560;DHT22;2803;47.916;8.074;2023-02-24T04:36:16;6.60;99.90
5560;DHT22;2803;47.916;8.074;2023-02-24T04:38:42;6.70;99.90
5560;DHT22;2803;47.916;8.074;2023-02-24T04:41:10;6.60;99.90
5560;DHT22;2803;47.916;8.074;2023-02-24T04:43:37;6.60;99.90
5560;DHT22;2803;47.916;8.074;2023-02-24T04:46:05;6.50;99.90
5560;DHT22;2803;47.916;8.074;2023-02-24T04:48:32;6.20;99.90
5560;DHT22;2803;47.916;8.074;2023-02-24T04:50:59;6.40;99.90
5560;DHT22;2803;47.916;8.074;2023-02-24T04:53:31;6.50;99.90
5560;DHT22;2803;47.916;8.074;2023-02-24T04:56:01;6.70;99.90
5560;DHT22;2803;47.916;8.074;2023-02-24T04:58:33;6.70;99.90
5560;DHT22;2803;47.916;8.074;2023-02-24T05:01:00;6.70;99.90
5560;DHT22;2803;47.916;8.074;2023-02-24T05:03:32;6.80;99.90
5560;DHT22;2803;47.916;8.074;2023-02-24T05:06:00;6.70;99.90
5560;DHT22;2803;47.916;8.074;2023-02-24T05:08:29;6.60;99.90
5560;DHT22;2803;47.916;8.074;2023-02-24T05:10:57;6.40;99.90
5560;DHT22;2803;47.916;8.074;2023-02-24T05:13:29;6.10;99.90
5560;DHT22;2803;47.916;8.074;2023-02-24T05:15:57;6.40;99.90
5560;DHT22;2803;47.916;8.074;2023-02-24T05:18:24;6.30;99.90
5560;DHT22;2803;47.916;8.074;2023-02-24T05:20:55;6.30;99.90
5560;DHT22;2803;47.916;8.074;2023-02-24T05:23:37;6.20;99.90
5560;DHT22;2803;47.916;8.074;2023-02-24T05:26:07;5.90;99.90
5560;DHT22;2803;47.916;8.074;2023-02-24T05:28:34;5.90;99.90
5560;DHT22;2803;47.916;8.074;2023-02-24T05:31:05;6.00;99.90
5560;DHT22;2803;47.916;8.074;2023-02-24T05:33:33;6.00;99.90
5560;DHT22;2803;47.916;8.074;2023-02-24T05:36:02;5.70;99.90
5560;DHT22;2803;47.916;8.074;2023-02-24T05:38:30;5.80;99.90
5560;DHT22;2803;47.916;8.074;2023-02-24T05:41:03;5.90;99.90
5560;DHT22;2803;47.916;8.074;2023-02-24T05:43:32;5.30;99.90
5560;DHT22;2803;47.916;8.074;2023-02-24T05:46:00;5.60;99.90
5560;DHT22;2803;47.916;8.074;2023-02-24T05:48:28;6.00;99.90
5560;DHT22;2803;47.916;8.074;2023-02-24T05:50:59;5.90;99.90
5560;DHT22;2803;47.916;8.074;2023-02-24T05:53:26;5.90;99.90
5560;DHT22;2803;47.916;8.074;2023-02-24T05:55:53;5.90;99.90
5560;DHT22;2803;47.916;8.074;2023-02-24T05:58:19;5.80;99.90
5560;DHT22;2803;47.916;8.074;2023-02-24T06:00:49;5.20;99.90
5560;DHT22;2803;47.916;8.074;2023-02-24T06:03:16;5.30;99.90
5560;DHT22;2803;47.916;8.074;2023-02-24T06:05:55;5.80;99.90
5560;DHT22;2803;47.916;8.074;2023-02-24T06:08:23;5.90;99.90
5560;DHT22;2803;47.916;8.074;2023-02-24T06:10:50;5.60;99.90
5560;DHT22;2803;47.916;8.074;2023-02-24T06:13:18;6.00;99.90
5560;DHT22;2803;47.916;8.074;2023-02-24T06:15:44;6.20;99.90
5560;DHT22;2803;47.916;8.074;2023-02-24T06:18:16;5.90;99.90
5560;DHT22;2803;47.916;8.074;2023-02-24T06:20:43;6.20;99.90
5560;DHT22;2803;47.916;8.074;2023-02-24T06:23:15;6.30;99.90
5560;DHT22;2803;47.916;8.074;2023-02-24T06:25:42;6.00;99.90
5560;DHT22;2803;47.916;8.074;2023-02-24T06:28:09;4.90;99.90
5560;DHT22;2803;47.916;8.074;2023-02-24T06:30:37;5.00;99.90
5560;DHT22;2803;47.916;8.074;2023-02-24T06:33:03;5.20;99.90
5560;DHT22;2803;47.916;8.074;2023-02-24T06:35:33;5.70;99.90
5560;DHT22;2803;47.916;8.074;2023-02-24T06:37:59;6.00;99.90
5560;DHT22;2803;47.916;8.074;2023-02-24T06:40:26;6.10;99.90
5560;DHT22;2803;47.916;8.074;2023-02-24T06:42:52;6.20;99.90
5560;DHT22;2803;47.916;8.074;2023-02-24T06:45:20;6.30;99.90
5560;DHT22;2803;47.916;8.074;2023-02-24T06:47:47;6.40;99.90
5560;DHT22;2803;47.916;8.074;2023-02-24T06:50:14;6.20;99.90
5560;DHT22;2803;47.916;8.074;2023-02-24T06:52:46;6.20;99.90
5560;DHT22;2803;47.916;8.074;2023-02-24T06:55:14;6.20;99.90
5560;DHT22;2803;47.916;8.074;2023-02-24T06:57:52;6.50;99.90
5560;DHT22;2803;47.916;8.074;2023-02-24T07:00:22;6.20;99.90
5560;DHT22;2803;47.916;8.074;2023-02-24T07:03:02;6.40;99.90
5560;DHT22;2803;47.916;8.074;2023-02-24T07:05:40;6.50;99.90
5560;DHT22;2803;47.916;8.074;2023-02-24T07:08:08;6.60;99.90
5560;DHT22;2803;47.916;8.074;2023-02-24T07:10:34;6.50;99.90
5560;DHT22;2803;47.916;8.074;2023-02-24T07:13:01;6.40;99.90
5560;DHT22;2803;47.916;8.074;2023-02-24T07:15:27;6.60;99.90
5560;DHT22;2803;47.916;8.074;2023-02-24T07:17:56;6.70;99.90
5560;DHT22;2803;47.916;8.074;2023-02-24T07:20:24;6.60;99.90
5560;DHT22;2803;47.916;8.074;2023-02-24T07:22:55;6.50;99.90
5560;DHT22;2803;47.916;8.074;2023-02-24T07:25:23;6.10;99.90
5560;DHT22;2803;47.916;8.074;2023-02-24T07:27:58;5.30;99.90
5560;DHT22;2803;47.916;8.074;2023-02-24T07:30:27;4.80;99.90
5560;DHT22;2803;47.916;8.074;2023-02-24T07:32:54;5.50;99.90
5560;DHT22;2803;47.916;8.074;2023-02-24T07:35:21;5.80;99.90
5560;DHT22;2803;47.916;8.074;2023-02-24T07:37:48;6.20;99.90
5560;DHT22;2803;47.916;8.074;2023-02-24T07:40:15;6.30;99.90
5560;DHT22;2803;47.916;8.074;2023-02-24T07:42:43;6.50;99.90
5560;DHT22;2803;47.916;8.074;2023-02-24T07:45:12;6.70;99.90
5560;DHT22;2803;47.916;8.074;2023-02-24T07:47:39;6.40;99.90
5560;DHT22;2803;47.916;8.074;2023-02-24T07:50:07;6.60;99.90
5560;DHT22;2803;47.916;8.074;2023-02-24T07:52:38;6.70;99.90
5560;DHT22;2803;47.916;8.074;2023-02-24T07:55:05;6.80;99.90
5560;DHT22;2803;47.916;8.074;2023-02-24T07:57:33;6.90;99.90
5560;DHT22;2803;47.916;8.074;2023-02-24T08:00:03;7.10;99.90
5560;DHT22;2803;47.916;8.074;2023-02-24T08:02:43;7.10;99.90
5560;DHT22;2803;47.916;8.074;2023-02-24T08:05:11;7.00;99.90
5560;DHT22;2803;47.916;8.074;2023-02-24T08:07:38;7.20;99.90
5560;DHT22;2803;47.916;8.074;2023-02-24T08:10:06;7.40;99.90
5560;DHT22;2803;47.916;8.074;2023-02-24T08:12:39;7.70;99.90
5560;DHT22;2803;47.916;8.074;2023-02-24T08:15:10;7.70;99.90
5560;DHT22;2803;47.916;8.074;2023-02-24T08:17:42;7.90;99.90
5560;DHT22;2803;47.916;8.074;2023-02-24T08:20:12;7.60;99.90
5560;DHT22;2803;47.916;8.074;2023-02-24T08:22:53;7.70;99.90
5560;DHT22;2803;47.916;8.074;2023-02-24T08:25:23;8.00;99.90
5560;DHT22;2803;47.916;8.074;2023-02-24T08:28:00;8.30;99.90
5560;DHT22;2803;47.916;8.074;2023-02-24T08:30:33;8.50;99.90
5560;DHT22;2803;47.916;8.074;2023-02-24T08:33:03;8.40;99.90
5560;DHT22;2803;47.916;8.074;2023-02-24T08:35:32;8.30;99.90
5560;DHT22;2803;47.916;8.074;2023-02-24T08:38:03;8.50;99.90
5560;DHT22;2803;47.916;8.074;2023-02-24T08:40:34;8.30;99.90
5560;DHT22;2803;47.916;8.074;2023-02-24T08:43:20;8.50;99.90
5560;DHT22;2803;47.916;8.074;2023-02-24T08:46:00;9.00;99.90
5560;DHT22;2803;47.916;8.074;2023-02-24T08:48:30;9.20;99.90
5560;DHT22;2803;47.916;8.074;2023-02-24T08:51:06;9.20;99.90
5560;DHT22;2803;47.916;8.074;2023-02-24T08:53:33;9.50;99.90
5560;DHT22;2803;47.916;8.074;2023-02-24T08:56:02;9.80;99.90
5560;DHT22;2803;47.916;8.074;2023-02-24T08:58:34;10.10;99.90
5560;DHT22;2803;47.916;8.074;2023-02-24T09:01:12;10.40;99.90
5560;DHT22;2803;47.916;8.074;2023-02-24T09:03:44;10.60;99.90
5560;DHT22;2803;47.916;8.074;2023-02-24T09:06:13;10.80;99.90
5560;DHT22;2803;47.916;8.074;2023-02-24T09:08:42;11.00;99.90
5560;DHT22;2803;47.916;8.074;2023-02-24T09:11:11;11.10;99.90
5560;DHT22;2803;47.916;8.074;2023-02-24T09:13:40;11.20;99.90
5560;DHT22;2803;47.916;8.074;2023-02-24T09:16:18;11.40;99.90
5560;DHT22;2803;47.916;8.074;2023-02-24T09:18:45;11.60;99.90
5560;DHT22;2803;47.916;8.074;2023-02-24T09:21:32;11.40;99.90
5560;DHT22;2803;47.916;8.074;2023-02-24T09:24:12;11.30;99.90
5560;DHT22;2803;47.916;8.074;2023-02-24T09:26:39;11.50;99.90
5560;DHT22;2803;47.916;8.074;2023-02-24T09:29:09;11.40;99.90
5560;DHT22;2803;47.916;8.074;2023-02-24T09:31:59;11.60;99.90
5560;DHT22;2803;47.916;8.074;2023-02-24T09:34:30;11.90;99.90
5560;DHT22;2803;47.916;8.074;2023-02-24T09:36:57;11.90;99.90
5560;DHT22;2803;47.916;8.074;2023-02-24T09:39:28;12.40;99.90
5560;DHT22;2803;47.916;8.074;2023-02-24T09:41:57;12.60;99.90
5560;DHT22;2803;47.916;8.074;2023-02-24T09:44:50;12.60;99.90
5560;DHT22;2803;47.916;8.074;2023-02-24T09:47:24;12.60;99.90
5560;DHT22;2803;47.916;8.074;2023-02-24T09:50:12;12.80;99.90
5560;DHT22;2803;47.916;8.074;2023-02-24T09:52:42;12.80;99.90
5560;DHT22;2803;47.916;8.074;2023-02-24T09:55:16;12.90;99.90
5560;DHT22;2803;47.916;8.074;2023-02-24T09:57:51;12.90;99.90
5560;DHT22;2803;47.916;8.074;2023-02-24T10:00:53;13.20;99.90
5560;DHT22;2803;47.916;8.074;2023-02-24T10:03:25;13.00;99.90
5560;DHT22;2803;47.916;8.074;2023-02-24T10:06:14;13.00;99.90
5560;DHT22;2803;47.916;8.074;2023-02-24T10:08:49;13.10;99.90
5560;DHT22;2803;47.916;8.074;2023-02-24T10:11:17;12.90;99.90
5560;DHT22;2803;47.916;8.074;2023-02-24T10:13:58;12.90;99.90
5560;DHT22;2803;47.916;8.074;2023-02-24T10:16:26;13.40;99.90
5560;DHT22;2803;47.916;8.074;2023-02-24T10:19:10;13.60;99.90
5560;DHT22;2803;47.916;8.074;2023-02-24T10:21:46;13.90;99.90
5560;DHT22;2803;47.916;8.074;2023-02-24T10:24:19;13.80;99.90
5560;DHT22;2803;47.916;8.074;2023-02-24T10:26:56;14.20;99.90
5560;DHT22;2803;47.916;8.074;2023-02-24T10:29:33;14.30;99.90
5560;DHT22;2803;47.916;8.074;2023-02-24T10:32:17;14.70;99.90
5560;DHT22;2803;47.916;8.074;2023-02-24T10:34:49;14.90;99.90
5560;DHT22;2803;47.916;8.074;2023-02-24T10:37:18;14.90;99.90
5560;DHT22;2803;47.916;8.074;2023-02-24T10:39:47;14.70;99.90
5560;DHT22;2803;47.916;8.074;2023-02-24T10:42:22;14.80;99.90
5560;DHT22;2803;47.916;8.074;2023-02-24T10:44:51;14.90;99.90
5560;DHT22;2803;47.916;8.074;2023-02-24T10:47:19;14.80;99.90
5560;DHT22;2803;47.916;8.074;2023-02-24T10:49:58;14.80;99.90
5560;DHT22;2803;47.916;8.074;2023-02-24T10:52:29;14.60;99.90
5560;DHT22;2803;47.916;8.074;2023-02-24T10:55:22;14.20;99.90
5560;DHT22;2803;47.916;8.074;2023-02-24T10:57:53;14.10;99.90
5560;DHT22;2803;47.916;8.074;2023-02-24T11:00:37;13.80;99.90
5560;DHT22;2803;47.916;8.074;2023-02-24T11:03:21;13.60;99.90
5560;DHT22;2803;47.916;8.074;2023-02-24T11:06:02;13.30;99.90
5560;DHT22;2803;47.916;8.074;2023-02-24T11:08:44;13.50;99.90
5560;DHT22;2803;47.916;8.074;2023-02-24T11:11:33;13.60;99.90
5560;DHT22;2803;47.916;8.074;2023-02-24T11:14:21;13.80;99.90
5560;DHT22;2803;47.916;8.074;2023-02-24T11:17:02;13.80;99.90
5560;DHT22;2803;47.916;8.074;2023-02-24T11:19:46;14.20;99.90
5560;DHT22;2803;47.916;8.074;2023-02-24T11:22:17;14.80;99.90
5560;DHT22;2803;47.916;8.074;2023-02-24T11:24:46;15.50;99.90
5560;DHT22;2803;47.916;8.074;2023-02-24T11:27:14;16.20;99.90
5560;DHT22;2803;47.916;8.074;2023-02-24T11:29:51;16.30;99.90
5560;DHT22;2803;47.916;8.074;2023-02-24T11:32:35;15.90;99.90
5560;DHT22;2803;47.916;8.074;2023-02-24T11:35:09;15.70;99.90
5560;DHT22;2803;47.916;8.074;2023-02-24T11:37:40;15.70;99.90
5560;DHT22;2803;47.916;8.074;2023-02-24T11:40:13;15.60;99.90
5560;DHT22;2803;47.916;8.074;2023-02-24T11:42:47;15.30;99.90
5560;DHT22;2803;47.916;8.074;2023-02-24T11:45:26;15.10;99.90
5560;DHT22;2803;47.916;8.074;2023-02-24T11:47:58;15.50;99.90
5560;DHT22;2803;47.916;8.074;2023-02-24T11:50:31;16.20;99.90
5560;DHT22;2803;47.916;8.074;2023-02-24T11:53:09;16.30;99.90
5560;DHT22;2803;47.916;8.074;2023-02-24T11:55:40;16.20;99.90
5560;DHT22;2803;47.916;8.074;2023-02-24T11:58:13;15.90;99.90
5560;DHT22;2803;47.916;8.074;2023-02-24T12:00:50;15.00;99.90
5560;DHT22;2803;47.916;8.074;2023-02-24T12:03:24;15.10;99.90
5560;DHT22;2803;47.916;8.074;2023-02-24T12:05:56;14.80;99.90
5560;DHT22;2803;47.916;8.074;2023-02-24T12:08:30;15.20;99.90
5560;DHT22;2803;47.916;8.074;2023-02-24T12:11:02;15.60;99.90
5560;DHT22;2803;47.916;8.074;2023-02-24T12:13:37;16.30;99.90
5560;DHT22;2803;47.916;8.074;2023-02-24T12:16:09;16.60;99.90
5560;DHT22;2803;47.916;8.074;2023-02-24T12:18:38;16.40;99.90
5560;DHT22;2803;47.916;8.074;2023-02-24T12:21:09;16.60;99.90
5560;DHT22;2803;47.916;8.074;2023-02-24T12:23:42;16.20;99.90
5560;DHT22;2803;47.916;8.074;2023-02-24T12:26:16;15.40;99.90
5560;DHT22;2803;47.916;8.074;2023-02-24T12:28:58;14.90;99.90
5560;DHT22;2803;47.916;8.074;2023-02-24T12:31:32;15.20;99.90
5560;DHT22;2803;47.916;8.074;2023-02-24T12:34:05;15.60;99.90
5560;DHT22;2803;47.916;8.074;2023-02-24T12:36:43;16.10;99.90
5560;DHT22;2803;47.916;8.074;2023-02-24T12:39:19;16.20;99.90
5560;DHT22;2803;47.916;8.074;2023-02-24T12:41:56;16.20;99.90
5560;DHT22;2803;47.916;8.074;2023-02-24T12:44:31;16.10;99.90
5560;DHT22;2803;47.916;8.074;2023-02-24T12:47:05;16.00;99.90
5560;DHT22;2803;47.916;8.074;2023-02-24T12:49:43;16.10;99.90
5560;DHT22;2803;47.916;8.074;2023-02-24T12:52:18;16.20;99.90
5560;DHT22;2803;47.916;8.074;2023-02-24T12:54:56;16.10;99.90
5560;DHT22;2803;47.916;8.074;2023-02-24T12:57:29;15.50;99.90
5560;DHT22;2803;47.916;8.074;2023-02-24T13:00:02;15.70;99.90
5560;DHT22;2803;47.916;8.074;2023-02-24T13:02:38;15.60;99.90
5560;DHT22;2803;47.916;8.074;2023-02-24T13:05:11;15.80;99.90
5560;DHT22;2803;47.916;8.074;2023-02-24T13:07:51;15.50;99.90
5560;DHT22;2803;47.916;8.074;2023-02-24T13:10:29;15.50;99.90
5560;DHT22;2803;47.916;8.074;2023-02-24T13:13:06;15.10;99.90
5560;DHT22;2803;47.916;8.074;2023-02-24T13:15:34;14.50;99.90
5560;DHT22;2803;47.916;8.074;2023-02-24T13:18:01;14.50;99.90
5560;DHT22;2803;47.916;8.074;2023-02-24T13:20:32;14.40;99.90
5560;DHT22;2803;47.916;8.074;2023-02-24T13:23:00;14.20;99.90
5560;DHT22;2803;47.916;8.074;2023-02-24T13:25:32;14.20;99.90
5560;DHT22;2803;47.916;8.074;2023-02-24T13:28:03;13.90;99.90
5560;DHT22;2803;47.916;8.074;2023-02-24T13:30:35;14.10;99.90
5560;DHT22;2803;47.916;8.074;2023-02-24T13:33:19;13.90;99.90
5560;DHT22;2803;47.916;8.074;2023-02-24T13:35:48;13.70;99.90
5560;DHT22;2803;47.916;8.074;2023-02-24T13:38:25;13.90;99.90
5560;DHT22;2803;47.916;8.074;2023-02-24T13:40:53;14.00;99.90
5560;DHT22;2803;47.916;8.074;2023-02-24T13:43:31;13.70;99.90
5560;DHT22;2803;47.916;8.074;2023-02-24T13:45:59;13.70;99.90
5560;DHT22;2803;47.916;8.074;2023-02-24T13:48:41;13.60;99.90
5560;DHT22;2803;47.916;8.074;2023-02-24T13:51:26;13.80;99.90
5560;DHT22;2803;47.916;8.074;2023-02-24T13:54:06;13.70;99.90
5560;DHT22;2803;47.916;8.074;2023-02-24T13:56:42;14.10;99.90
5560;DHT22;2803;47.916;8.074;2023-02-24T13:59:23;13.90;99.90
5560;DHT22;2803;47.916;8.074;2023-02-24T14:01:57;13.90;99.90
5560;DHT22;2803;47.916;8.074;2023-02-24T14:04:25;14.10;99.90
5560;DHT22;2803;47.916;8.074;2023-02-24T14:06:55;13.60;99.90
5560;DHT22;2803;47.916;8.074;2023-02-24T14:09:26;13.50;99.90
5560;DHT22;2803;47.916;8.074;2023-02-24T14:11:57;13.40;99.90
5560;DHT22;2803;47.916;8.074;2023-02-24T14:14:26;13.10;99.90
5560;DHT22;2803;47.916;8.074;2023-02-24T14:16:53;13.20;99.90
5560;DHT22;2803;47.916;8.074;2023-02-24T14:19:20;13.20;99.90
5560;DHT22;2803;47.916;8.074;2023-02-24T14:21:52;13.20;99.90
5560;DHT22;2803;47.916;8.074;2023-02-24T14:24:19;13.40;99.90
5560;DHT22;2803;47.916;8.074;2023-02-24T14:26:49;13.30;99.90
5560;DHT22;2803;47.916;8.074;2023-02-24T14:29:20;13.50;99.90
5560;DHT22;2803;47.916;8.074;2023-02-24T14:31:49;13.30;99.90
5560;DHT22;2803;47.916;8.074;2023-02-24T14:34:18;12.90;99.90
5560;DHT22;2803;47.916;8.074;2023-02-24T14:36:46;13.20;99.90
5560;DHT22;2803;47.916;8.074;2023-02-24T14:39:17;13.20;99.90
5560;DHT22;2803;47.916;8.074;2023-02-24T14:41:45;13.10;99.90
5560;DHT22;2803;47.916;8.074;2023-02-24T14:44:23;12.80;99.90
5560;DHT22;2803;47.916;8.074;2023-02-24T14:46:51;12.90;99.90
5560;DHT22;2803;47.916;8.074;2023-02-24T14:49:21;13.00;99.90
5560;DHT22;2803;47.916;8.074;2023-02-24T14:51:51;13.20;99.90
5560;DHT22;2803;47.916;8.074;2023-02-24T14:54:29;13.20;99.90
5560;DHT22;2803;47.916;8.074;2023-02-24T14:56:58;13.30;99.90
5560;DHT22;2803;47.916;8.074;2023-02-24T14:59:30;13.40;99.90
5560;DHT22;2803;47.916;8.074;2023-02-24T15:01:59;13.30;99.90
5560;DHT22;2803;47.916;8.074;2023-02-24T15:04:32;13.00;99.90
5560;DHT22;2803;47.916;8.074;2023-02-24T15:07:03;13.00;99.90
5560;DHT22;2803;47.916;8.074;2023-02-24T15:09:34;13.00;99.90
5560;DHT22;2803;47.916;8.074;2023-02-24T15:12:09;13.20;99.90
5560;DHT22;2803;47.916;8.074;2023-02-24T15:14:39;12.80;99.90
5560;DHT22;2803;47.916;8.074;2023-02-24T15:17:09;13.30;99.90
5560;DHT22;2803;47.916;8.074;2023-02-24T15:19:41;13.20;99.90
5560;DHT22;2803;47.916;8.074;2023-02-24T15:22:20;13.20;99.90
5560;DHT22;2803;47.916;8.074;2023-02-24T15:24:48;13.40;99.90
5560;DHT22;2803;47.916;8.074;2023-02-24T15:27:22;13.00;99.90
5560;DHT22;2803;47.916;8.074;2023-02-24T15:30:02;12.90;99.90
5560;DHT22;2803;47.916;8.074;2023-02-24T15:32:31;12.80;99.90
5560;DHT22;2803;47.916;8.074;2023-02-24T15:34:58;13.30;99.90
5560;DHT22;2803;47.916;8.074;2023-02-24T15:37:28;13.40;99.90
5560;DHT22;2803;47.916;8.074;2023-02-24T15:40:04;13.30;99.90
5560;DHT22;2803;47.916;8.074;2023-02-24T15:42:33;12.90;99.90
5560;DHT22;2803;47.916;8.074;2023-02-24T15:45:04;13.20;99.90
5560;DHT22;2803;47.916;8.074;2023-02-24T15:47:41;13.30;99.90
5560;DHT22;2803;47.916;8.074;2023-02-24T15:50:10;13.30;99.90
5560;DHT22;2803;47.916;8.074;2023-02-24T15:52:37;13.10;99.90
5560;DHT22;2803;47.916;8.074;2023-02-24T15:55:06;13.30;99.90
5560;DHT22;2803;47.916;8.074;2023-02-24T15:57:33;13.30;99.90
5560;DHT22;2803;47.916;8.074;2023-02-24T15:59:59;13.40;99.90
5560;DHT22;2803;47.916;8.074;2023-02-24T16:02:27;13.20;99.90
5560;DHT22;2803;47.916;8.074;2023-02-24T16:04:54;13.20;99.90
5560;DHT22;2803;47.916;8.074;2023-02-24T16:07:23;13.30;99.90
5560;DHT22;2803;47.916;8.074;2023-02-24T16:09:51;13.50;99.90
5560;DHT22;2803;47.916;8.074;2023-02-24T16:12:22;13.30;99.90
5560;DHT22;2803;47.916;8.074;2023-02-24T16:14:50;13.30;99.90
5560;DHT22;2803;47.916;8.074;2023-02-24T16:17:26;13.40;99.90
5560;DHT22;2803;47.916;8.074;2023-02-24T16:19:55;13.20;99.90
5560;DHT22;2803;47.916;8.074;2023-02-24T16:22:22;13.10;99.90
5560;DHT22;2803;47.916;8.074;2023-02-24T16:24:49;12.90;99.90
5560;DHT22;2803;47.916;8.074;2023-02-24T16:27:17;13.00;99.90
5560;DHT22;2803;47.916;8.074;2023-02-24T16:29:44;13.00;99.90
5560;DHT22;2803;47.916;8.074;2023-02-24T16:32:12;13.20;99.90
5560;DHT22;2803;47.916;8.074;2023-02-24T16:34:39;13.10;99.90
5560;DHT22;2803;47.916;8.074;2023-02-24T16:37:15;13.20;99.90
5560;DHT22;2803;47.916;8.074;2023-02-24T16:39:42;13.20;99.90
5560;DHT22;2803;47.916;8.074;2023-02-24T16:42:09;13.20;99.90